createdAt,value
2023-04-16T00:04:26.363Z,18.73
2023-04-16T00:09:27.951Z,22.25
2023-04-16T00:14:29.802Z,18.38
2023-04-16T00:19:31.265Z,18.65
2023-04-16T00:24:32.742Z,18.33
2023-04-16T00:29:34.814Z,19.55
2023-04-16T00:34:36.267Z,20.02
2023-04-16T00:39:37.807Z,17.70
2023-04-16T00:44:39.302Z,18.33
2023-04-16T00:49:40.895Z,19.02
2023-04-16T00:54:42.379Z,17.42
2023-04-16T00:59:43.837Z,22.23
2023-04-16T01:04:45.319Z,22.02
2023-04-16T01:09:46.807Z,18.02
2023-04-16T01:14:48.385Z,18.42
2023-04-16T01:19:49.875Z,19.15
2023-04-16T01:24:51.357Z,19.90
2023-04-16T01:29:52.850Z,17.83
2023-04-16T01:34:54.324Z,19.73
2023-04-16T01:39:56.030Z,20.73
2023-04-16T01:44:57.633Z,18.40
2023-04-16T01:49:59.624Z,19.08
2023-04-16T01:55:01.084Z,19.65
2023-04-16T02:00:03.361Z,21.55
2023-04-16T02:05:05.350Z,23.98
2023-04-16T02:10:08.078Z,22.02
2023-04-16T02:15:10.011Z,21.45
2023-04-16T02:20:11.820Z,21.27
2023-04-16T02:25:14.237Z,23.35
2023-04-16T02:30:15.732Z,18.45
2023-04-16T02:35:17.207Z,24.05
2023-04-16T02:40:18.667Z,24.00
2023-04-16T02:45:20.871Z,22.75
2023-04-16T02:50:22.426Z,22.25
2023-04-16T02:55:23.905Z,24.30
2023-04-16T03:00:25.599Z,24.33
2023-04-16T03:05:27.103Z,26.15
2023-04-16T03:10:28.605Z,22.10
2023-04-16T03:15:30.786Z,25.85
2023-04-16T03:20:32.293Z,24.27
2023-04-16T03:25:33.778Z,22.88
2023-04-16T03:30:35.405Z,27.08
2023-04-16T03:35:36.857Z,26.10
2023-04-16T03:40:39.000Z,22.02
2023-04-16T03:45:46.860Z,26.25
2023-04-16T03:50:48.471Z,25.70
2023-04-16T03:55:53.474Z,25.33
2023-04-16T04:00:55.445Z,24.10
2023-04-16T04:05:56.924Z,27.33
2023-04-16T04:10:58.381Z,23.75
2023-04-16T04:15:59.925Z,23.50
2023-04-16T04:21:07.966Z,24.55
2023-04-16T04:26:09.504Z,23.27
2023-04-16T04:31:11.087Z,22.95
2023-04-16T04:36:12.552Z,24.27
2023-04-16T04:41:14.012Z,23.80
2023-04-16T04:46:15.673Z,24.35
2023-04-16T04:51:17.149Z,23.67
2023-04-16T04:56:18.614Z,22.95
2023-04-16T05:01:20.323Z,24.77
2023-04-16T05:06:21.819Z,23.15
2023-04-16T05:11:23.302Z,23.25
2023-04-16T05:16:24.810Z,20.65
2023-04-16T05:21:26.453Z,20.83
2023-04-16T05:26:27.923Z,24.63
2023-04-16T05:31:29.392Z,21.15
2023-04-16T05:36:30.855Z,25.55
2023-04-16T05:41:32.317Z,24.17
2023-04-16T05:46:33.844Z,25.45
2023-04-16T05:51:35.613Z,27.27
2023-04-16T05:56:37.075Z,24.85
2023-04-16T06:01:38.561Z,27.20
2023-04-16T06:06:40.294Z,24.98
2023-04-16T06:11:42.774Z,25.38
2023-04-16T06:16:44.244Z,34.95
2023-04-16T06:21:45.873Z,26.88
2023-04-16T06:26:47.347Z,30.83
2023-04-16T06:31:49.113Z,33.03
2023-04-16T06:36:50.644Z,26.23
2023-04-16T06:41:52.124Z,28.17
2023-04-16T06:46:53.631Z,31.88
2023-04-16T06:51:55.116Z,29.13
2023-04-16T06:56:56.573Z,29.88
2023-04-16T07:01:58.140Z,31.20
2023-04-16T07:06:59.766Z,25.67
2023-04-16T07:12:01.228Z,27.17
2023-04-16T07:17:02.682Z,32.65
2023-04-16T07:22:04.336Z,55.30
2023-04-16T07:27:05.931Z,126.53
2023-04-16T07:32:07.652Z,69.80
2023-04-16T07:37:09.229Z,90.20
2023-04-16T07:42:10.862Z,106.88
2023-04-16T07:47:12.348Z,53.92
2023-04-16T07:52:13.843Z,41.50
2023-04-16T07:57:16.453Z,64.50
2023-04-16T08:02:18.024Z,29.33
2023-04-16T08:07:19.548Z,28.30
2023-04-16T08:12:21.137Z,32.53
2023-04-16T08:17:22.787Z,28.60
2023-04-16T08:22:24.420Z,26.75
2023-04-16T08:27:25.935Z,29.60
2023-04-16T08:32:27.502Z,28.63
2023-04-16T08:37:29.004Z,30.05
2023-04-16T08:42:32.090Z,27.10
2023-04-16T08:47:34.608Z,28.13
2023-04-16T08:52:37.549Z,25.38
2023-04-16T08:57:41.121Z,25.83
2023-04-16T09:02:42.904Z,28.92
2023-04-16T09:07:47.810Z,28.38
2023-04-16T09:12:49.690Z,25.70
2023-04-16T09:17:51.764Z,24.67
2023-04-16T09:22:53.325Z,24.63
2023-04-16T09:27:54.867Z,25.52
2023-04-16T09:33:24.304Z,24.08
2023-04-16T09:38:26.592Z,23.40
2023-04-16T09:43:28.116Z,22.15
2023-04-16T09:48:29.936Z,25.27
2023-04-16T09:53:31.580Z,22.65
2023-04-16T09:58:35.210Z,23.08
2023-04-16T10:03:38.344Z,26.80
2023-04-16T10:08:50.217Z,22.75
2023-04-16T10:13:51.986Z,23.58
2023-04-16T10:18:53.482Z,26.25
2023-04-16T10:23:54.955Z,25.85
2023-04-16T10:28:56.459Z,21.90
2023-04-16T10:33:57.953Z,30.73
2023-04-16T10:38:59.637Z,24.00
2023-04-16T10:44:09.893Z,22.42
2023-04-16T10:49:16.110Z,23.58
2023-04-16T10:54:17.430Z,26.88
2023-04-16T10:59:22.452Z,23.90
2023-04-16T11:04:23.833Z,23.60
2023-04-16T11:09:47.591Z,21.92
2023-04-16T11:14:51.131Z,21.45
2023-04-16T11:19:53.689Z,22.95
2023-04-16T11:24:56.236Z,22.20
2023-04-16T11:30:02.141Z,22.58
2023-04-16T11:35:05.806Z,22.30
2023-04-16T11:40:08.169Z,25.10
2023-04-16T11:45:10.928Z,25.33
2023-04-16T11:50:30.458Z,23.85
2023-04-16T11:55:31.937Z,24.05
2023-04-16T12:00:35.300Z,27.17
2023-04-16T12:05:38.957Z,23.58
2023-04-16T12:10:53.638Z,25.58
2023-04-16T12:15:56.064Z,24.90
2023-04-16T12:26:02.133Z,22.85
2023-04-16T12:31:04.010Z,20.88
2023-04-16T12:36:18.744Z,25.58
2023-04-16T12:41:20.492Z,21.92
2023-04-16T12:46:21.997Z,24.23
2023-04-16T12:51:23.640Z,22.85
2023-04-16T12:56:25.112Z,26.55
2023-04-16T13:01:26.608Z,22.63
2023-04-16T13:06:28.098Z,27.23
2023-04-16T13:11:29.573Z,25.00
2023-04-16T13:16:31.185Z,44.03
2023-04-16T13:21:33.315Z,21.70
2023-04-16T13:26:34.777Z,23.90
2023-04-16T13:31:36.248Z,25.27
2023-04-16T13:36:37.754Z,31.77
2023-04-16T13:41:39.254Z,22.38
2023-04-16T13:46:43.501Z,23.58
2023-04-16T13:51:45.054Z,23.30
2023-04-16T13:56:46.520Z,23.35
2023-04-16T14:01:47.977Z,18.88
2023-04-16T14:06:49.707Z,21.92
2023-04-16T14:11:51.180Z,26.40
2023-04-16T14:16:54.693Z,23.38
2023-04-16T14:21:56.172Z,22.05
2023-04-16T14:26:57.622Z,21.17
2023-04-16T14:31:59.133Z,22.42
2023-04-16T14:37:00.735Z,28.58
2023-04-16T14:42:02.402Z,24.98
2023-04-16T14:47:03.903Z,22.08
2023-04-16T14:52:05.788Z,25.63
2023-04-16T14:57:07.337Z,23.00
2023-04-16T15:02:09.983Z,26.08
2023-04-16T15:07:11.534Z,24.38
2023-04-16T15:12:13.051Z,23.52
2023-04-16T15:17:14.544Z,26.63
2023-04-16T15:22:16.705Z,24.52
2023-04-16T15:27:19.207Z,23.15
2023-04-16T15:37:22.218Z,26.95
2023-04-16T15:42:23.963Z,22.98
2023-04-16T15:47:25.565Z,30.73
2023-04-16T15:52:27.128Z,23.90
2023-04-16T15:57:28.600Z,24.98
2023-04-16T16:02:30.583Z,22.35
2023-04-16T16:07:32.193Z,23.00
2023-04-16T16:12:33.711Z,25.77
2023-04-16T16:17:35.206Z,27.25
2023-04-16T16:22:38.095Z,21.60
2023-04-16T16:27:40.544Z,23.70
2023-04-16T16:37:45.588Z,24.38
2023-04-16T16:42:47.091Z,23.83
2023-04-16T16:47:49.684Z,25.67
2023-04-16T16:52:51.460Z,24.02
2023-04-16T16:57:53.098Z,21.02
2023-04-16T17:02:54.745Z,20.88
2023-04-16T17:07:56.284Z,20.13
2023-04-16T17:12:57.806Z,21.50
2023-04-16T17:17:59.293Z,24.08
2023-04-16T17:23:00.821Z,21.25
2023-04-16T17:28:02.759Z,20.77
2023-04-16T17:33:04.660Z,19.85
2023-04-16T17:38:06.279Z,24.23
2023-04-16T17:43:07.745Z,22.00
2023-04-16T17:48:09.310Z,22.70
2023-04-16T17:53:10.956Z,23.02
2023-04-16T17:58:12.416Z,21.23
2023-04-16T18:03:14.780Z,20.67
2023-04-16T18:08:16.394Z,22.27
2023-04-16T18:13:18.026Z,21.77
2023-04-16T18:18:20.521Z,21.40
2023-04-16T18:23:22.137Z,23.08
2023-04-16T18:28:24.576Z,23.15
2023-04-16T18:33:52.564Z,20.58
2023-04-16T18:38:59.934Z,21.95
2023-04-16T18:44:02.902Z,22.13
2023-04-16T18:49:04.356Z,21.10
2023-04-16T18:54:05.844Z,18.98
2023-04-16T18:59:07.373Z,21.83
2023-04-16T19:04:08.907Z,20.80
2023-04-16T19:09:11.569Z,20.92
2023-04-16T19:14:13.262Z,21.67
2023-04-16T19:19:14.804Z,22.25
2023-04-16T19:24:16.579Z,21.75
2023-04-16T19:29:18.073Z,24.40
2023-04-16T19:34:19.576Z,22.60
2023-04-16T19:39:21.073Z,21.90
2023-04-16T19:44:23.130Z,22.70
2023-04-16T19:49:27.426Z,21.30
2023-04-16T19:54:29.168Z,20.88
2023-04-16T19:59:32.135Z,24.15
2023-04-16T20:04:34.435Z,19.58
2023-04-16T20:09:35.985Z,24.55
2023-04-16T20:14:37.716Z,21.52
2023-04-16T20:19:39.240Z,25.42
2023-04-16T20:24:41.487Z,20.02
2023-04-16T20:29:43.008Z,22.83
2023-04-16T20:34:44.466Z,22.80
2023-04-16T20:39:46.747Z,20.05
2023-04-16T20:44:55.661Z,21.17
2023-04-16T20:49:58.106Z,20.95
2023-04-16T20:54:59.579Z,25.17
2023-04-16T21:00:01.058Z,19.92
2023-04-16T21:05:02.982Z,20.77
2023-04-16T21:10:05.058Z,20.23
2023-04-16T21:15:07.242Z,25.85
2023-04-16T21:20:11.839Z,19.08
2023-04-16T21:25:13.348Z,18.65
2023-04-16T21:30:15.106Z,17.35
2023-04-16T21:35:16.575Z,21.45
2023-04-16T21:40:18.038Z,19.30
2023-04-16T21:45:19.503Z,18.92
2023-04-16T21:50:20.992Z,22.42
2023-04-16T21:55:22.648Z,16.13
2023-04-16T22:00:24.149Z,19.83
2023-04-16T22:05:26.040Z,17.63
2023-04-16T22:10:27.540Z,17.88
2023-04-16T22:15:29.148Z,16.23
2023-04-16T22:20:30.705Z,18.48
2023-04-16T22:25:32.175Z,15.95
2023-04-16T22:30:33.649Z,18.35
2023-04-16T22:35:35.943Z,20.88
2023-04-16T22:40:37.482Z,19.33
2023-04-16T22:45:39.031Z,19.08
2023-04-16T22:50:41.296Z,19.77
2023-04-16T22:55:42.804Z,19.92
2023-04-16T23:00:44.268Z,18.13
2023-04-16T23:05:45.939Z,15.40
2023-04-16T23:10:47.414Z,21.88
2023-04-16T23:15:48.950Z,22.25
2023-04-16T23:20:51.882Z,19.50
2023-04-16T23:25:53.722Z,17.38
2023-04-16T23:30:55.258Z,22.63
2023-04-16T23:35:56.731Z,21.98
2023-04-16T23:40:58.196Z,22.67
2023-04-16T23:45:59.719Z,19.80
2023-04-16T23:51:01.239Z,18.27
2023-04-16T23:56:02.816Z,22.80
